Time;durP1;ratioP1;P1;durP2;ratioP2;P2;SDS_P1;SDS_P2;PMS_P1;PMS_P2;Temp;Humidity;BMP_temperature;BMP_pressure;BME280_temperature;BME280_humidity;BME280_pressure;Samples;Min_cycle;Max_cycle;Signal;HPM_P1;HPM_P2
2023/06/06 00:01:20;;;;;;;;;8.00;8.00;;;;;22.76;34.95;101318.73;112080;1248;20772;-40
2023/06/06 00:03:48;;;;;;;;;8.50;8.00;;;;;22.67;35.01;101321.93;111927;1264;19915;-39
2023/06/06 00:06:20;;;;;;;;;9.00;9.00;;;;;22.44;35.33;101322.41;112037;1263;19993;-39
2023/06/06 00:08:48;;;;;;;;;14.50;13.00;;;;;22.31;35.53;101320.62;111967;1263;20900;-39
2023/06/06 00:11:15;;;;;;;;;9.00;9.00;;;;;22.29;35.77;101321.59;112089;1256;19529;-39
2023/06/06 00:13:43;;;;;;;;;11.00;9.00;;;;;22.27;35.68;101323.40;112109;1248;20109;-39
2023/06/06 00:16:12;;;;;;;;;9.00;8.00;;;;;22.32;35.71;101323.15;112073;1264;19405;-39
2023/06/06 00:18:40;;;;;;;;;12.00;11.00;;;;;22.33;35.47;101322.20;112099;1248;18658;-39
2023/06/06 00:21:08;;;;;;;;;;;;;;;22.28;35.62;101318.20;111949;1264;18568;-41
2023/06/06 00:23:36;;;;;;;;;11.00;9.00;;;;;22.28;35.57;101319.44;112092;1264;20650;-40
2023/06/06 00:26:03;;;;;;;;;10.00;9.00;;;;;22.31;35.56;101321.99;112162;1263;19100;-39
2023/06/06 00:28:31;;;;;;;;;10.50;10.50;;;;;22.30;35.69;101322.73;112077;1263;18983;-41
2023/06/06 00:30:58;;;;;;;;;12.00;8.00;;;;;22.21;35.77;101320.47;112224;1251;20738;-40
2023/06/06 00:33:26;;;;;;;;;12.00;11.00;;;;;22.16;35.60;101318.48;112013;1263;19974;-39
2023/06/06 00:35:53;;;;;;;;;11.00;10.50;;;;;22.12;35.73;101322.48;112244;1263;20375;-40
2023/06/06 00:38:21;;;;;;;;;11.00;11.00;;;;;22.06;35.84;101321.38;112072;1248;20671;-39
2023/06/06 00:40:48;;;;;;;;;10.00;9.00;;;;;22.20;35.52;101319.45;112205;1263;19931;-40
2023/06/06 00:43:15;;;;;;;;;14.00;12.00;;;;;22.20;35.52;101321.70;112095;1263;18651;-39
2023/06/06 00:45:43;;;;;;;;;9.00;9.00;;;;;22.09;35.78;101316.98;112131;1248;20742;-39
2023/06/06 00:48:10;;;;;;;;;11.50;11.00;;;;;22.09;35.62;101316.61;112085;1263;18590;-39
2023/06/06 00:50:39;;;;;;;;;9.00;9.00;;;;;22.08;35.73;101314.75;112045;1263;18697;-40
2023/06/06 00:53:06;;;;;;;;;10.00;10.00;;;;;22.08;35.79;101308.95;112025;1263;19565;-39
2023/06/06 00:55:34;;;;;;;;;8.67;8.67;;;;;22.16;35.67;101310.81;111919;1263;337425;-39
2023/06/06 00:58:01;;;;;;;;;10.00;9.00;;;;;22.21;35.70;101312.10;112039;1256;18828;-39
2023/06/06 01:00:32;;;;;;;;;10.00;8.00;;;;;22.08;35.82;101311.89;112163;1263;19303;-40
2023/06/06 01:02:59;;;;;;;;;10.00;10.00;;;;;21.97;36.00;101309.77;112142;1257;19973;-40
2023/06/06 01:05:27;;;;;;;;;9.00;8.00;;;;;21.93;35.98;101310.83;111957;1248;18729;-39
2023/06/06 01:07:54;;;;;;;;;12.00;10.00;;;;;22.01;35.77;101313.22;112148;1263;20818;-45
2023/06/06 01:10:22;;;;;;;;;10.00;10.00;;;;;21.85;36.08;101308.75;111967;1263;18206;-39
2023/06/06 01:12:49;;;;;;;;;11.50;10.50;;;;;21.99;35.70;101304.48;112165;1251;20127;-39
2023/06/06 01:15:17;;;;;;;;;10.00;8.00;;;;;21.96;35.94;101306.96;111998;1263;19465;-39
2023/06/06 01:17:46;;;;;;;;;13.00;11.00;;;;;21.88;35.85;101309.77;112145;1248;21184;-39
2023/06/06 01:20:13;;;;;;;;;8.00;8.00;;;;;21.89;36.05;101308.92;112220;1263;18689;-39
2023/06/06 01:22:43;;;;;;;;;11.00;11.00;;;;;21.97;35.88;101311.03;112061;1248;21936;-39
2023/06/06 01:25:12;;;;;;;;;10.33;8.67;;;;;22.07;35.81;101314.89;112048;1263;19853;-39
2023/06/06 01:27:39;;;;;;;;;10.00;9.00;;;;;22.16;35.60;101310.10;112104;1248;21231;-39
2023/06/06 01:30:07;;;;;;;;;8.67;8.67;;;;;22.25;35.54;101316.90;111977;1263;19288;-39
2023/06/06 01:32:35;;;;;;;;;9.00;9.00;;;;;22.30;35.25;101318.14;112105;1263;18980;-39
2023/06/06 01:35:03;;;;;;;;;9.67;9.67;;;;;22.16;35.62;101320.06;112114;1248;18489;-39
2023/06/06 01:37:31;;;;;;;;;9.00;9.00;;;;;22.13;35.72;101317.27;112078;1263;19794;-39
2023/06/06 01:39:58;;;;;;;;;10.67;10.67;;;;;21.87;36.28;101311.79;112224;1248;19633;-40
2023/06/06 01:42:26;;;;;;;;;10.33;10.33;;;;;21.96;35.91;101317.07;112079;1248;20293;-39
2023/06/06 01:44:53;;;;;;;;;8.00;8.00;;;;;22.08;35.94;101317.30;112224;1251;20762;-39
2023/06/06 01:47:21;;;;;;;;;9.00;9.00;;;;;22.14;35.88;101325.80;112041;1263;18887;-42
2023/06/06 01:49:48;;;;;;;;;11.00;11.00;;;;;22.18;35.92;101321.19;112178;1256;18790;-40
2023/06/06 01:52:15;;;;;;;;;11.00;11.00;;;;;22.17;35.89;101325.80;112098;1263;21515;-40
2023/06/06 01:54:44;;;;;;;;;10.50;10.50;;;;;22.16;35.90;101327.53;112238;1264;18738;-41
2023/06/06 01:57:11;;;;;;;;;9.00;9.00;;;;;22.12;35.99;101324.33;112066;1264;20488;-39
2023/06/06 01:59:39;;;;;;;;;12.00;11.00;;;;;22.11;36.26;101323.01;112170;1248;20836;-40
2023/06/06 02:02:07;;;;;;;;;8.33;8.33;;;;;22.12;36.40;101320.65;112057;1248;18182;-40
2023/06/06 02:04:34;;;;;;;;;11.00;11.00;;;;;22.14;36.69;101321.39;112169;1263;18598;-40
2023/06/06 02:07:02;;;;;;;;;12.00;12.00;;;;;22.14;36.93;101322.18;111968;1264;20698;-39
2023/06/06 02:09:29;;;;;;;;;12.00;12.00;;;;;22.10;37.09;101321.62;112174;1264;18574;-40
2023/06/06 02:11:56;;;;;;;;;12.00;12.00;;;;;22.11;37.45;101321.20;111966;1264;21182;-40
2023/06/06 02:14:24;;;;;;;;;11.50;11.00;;;;;22.11;37.55;101318.43;112158;1256;19311;-40
2023/06/06 02:16:51;;;;;;;;;12.00;12.00;;;;;22.05;37.83;101317.30;111988;1248;19974;-41
2023/06/06 02:19:19;;;;;;;;;11.00;11.00;;;;;22.07;37.87;101319.05;112163;1248;18911;-39
2023/06/06 02:21:48;;;;;;;;;11.00;9.00;;;;;22.10;37.82;101319.10;111940;1264;21689;-39
2023/06/06 02:24:15;;;;;;;;;11.00;9.00;;;;;22.11;38.02;101320.82;112097;1263;19899;-40
2023/06/06 02:26:44;;;;;;;;;12.00;12.00;;;;;22.13;38.04;101319.70;112124;1248;18732;-40
2023/06/06 02:29:11;;;;;;;;;13.00;11.50;;;;;22.14;38.04;101317.77;112046;1263;19446;-40
2023/06/06 02:31:39;;;;;;;;;12.00;11.50;;;;;22.15;38.17;101317.30;112155;1263;21109;-40
2023/06/06 02:34:06;;;;;;;;;12.00;12.00;;;;;22.14;38.17;101318.83;111977;1248;20032;-39
2023/06/06 02:36:34;;;;;;;;;12.00;11.00;;;;;22.14;38.16;101318.67;112179;1248;19597;-39
2023/06/06 02:39:03;;;;;;;;;12.67;12.00;;;;;22.12;38.32;101320.76;111985;1256;19264;-38
2023/06/06 02:41:30;;;;;;;;;14.00;12.00;;;;;22.10;38.53;101317.11;112057;1264;20066;-38
2023/06/06 02:43:58;;;;;;;;;12.00;12.00;;;;;22.11;38.59;101317.67;112122;1263;19282;-39
2023/06/06 02:46:25;;;;;;;;;11.00;11.00;;;;;22.11;38.60;101317.84;112107;1248;20462;-39
2023/06/06 02:48:53;;;;;;;;;15.00;14.00;;;;;22.08;38.72;101317.28;112047;1263;19939;-39
2023/06/06 02:51:22;;;;;;;;;12.00;12.00;;;;;22.03;38.65;101315.66;112101;1248;21758;-39
2023/06/06 02:53:49;;;;;;;;;11.50;11.00;;;;;22.03;38.72;101321.70;112119;1263;19884;-39
2023/06/06 02:56:17;;;;;;;;;15.00;14.00;;;;;22.04;38.90;101318.71;111962;1263;18803;-39
2023/06/06 02:58:44;;;;;;;;;13.00;11.50;;;;;22.04;38.93;101317.00;112136;1263;20692;-39
2023/06/06 03:01:13;;;;;;;;;13.00;12.00;;;;;22.04;38.85;101319.35;111966;1248;20217;-39
2023/06/06 03:03:40;;;;;;;;;14.00;13.00;;;;;22.05;38.89;101320.58;112097;1263;20008;-39
2023/06/06 03:06:08;;;;;;;;;16.33;13.33;;;;;22.04;39.00;101316.86;112059;1248;19814;-39
2023/06/06 03:08:35;;;;;;;;;12.00;12.00;;;;;22.04;39.08;101318.29;112080;1263;20175;-39
2023/06/06 03:11:03;;;;;;;;;14.00;12.00;;;;;22.00;39.14;101315.64;111947;1248;21274;-39
2023/06/06 03:13:30;;;;;;;;;15.00;15.00;;;;;22.00;39.32;101315.64;112118;1248;20762;-41
2023/06/06 03:15:58;;;;;;;;;13.33;13.33;;;;;21.99;39.49;101314.70;112056;1248;19992;-39
2023/06/06 03:18:25;;;;;;;;;14.00;14.00;;;;;21.99;39.58;101313.17;112107;1248;18943;-40
2023/06/06 03:20:53;;;;;;;;;12.00;12.00;;;;;21.99;39.68;101314.33;112000;1248;19598;-39
2023/06/06 03:23:20;;;;;;;;;14.00;14.00;;;;;21.95;39.95;101314.59;112134;1263;18561;-39
2023/06/06 03:25:49;;;;;;;;;13.00;13.00;;;;;21.94;39.99;101313.05;112062;1263;20065;-40
2023/06/06 03:28:17;;;;;;;;;14.00;14.00;;;;;21.91;40.40;101309.70;112035;1248;20695;-39
2023/06/06 03:30:45;;;;;;;;;14.50;14.50;;;;;21.92;40.51;101309.42;112114;1263;19928;-39
2023/06/06 03:33:13;;;;;;;;;13.50;12.50;;;;;21.90;40.54;101311.38;111908;1263;19051;-39
2023/06/06 03:35:40;;;;;;;;;14.50;14.00;;;;;21.90;40.69;101312.09;112121;1251;19515;-39
2023/06/06 03:38:07;;;;;;;;;15.00;14.00;;;;;21.90;40.85;101308.98;111940;1263;19888;-39
2023/06/06 03:40:35;;;;;;;;;14.00;12.00;;;;;21.82;41.07;101311.99;112137;1248;20096;-39
2023/06/06 03:43:02;;;;;;;;;14.50;14.50;;;;;21.80;40.94;101313.66;111957;1263;20862;-39
2023/06/06 03:45:30;;;;;;;;;15.00;14.00;;;;;21.83;41.11;101314.75;112108;1248;20013;-39
2023/06/06 03:47:57;;;;;;;;;17.00;15.00;;;;;21.85;40.83;101315.46;111914;1263;18658;-39
2023/06/06 03:50:25;;;;;;;;;14.00;14.00;;;;;21.88;40.86;101317.55;112113;1248;20859;-40
2023/06/06 03:52:53;;;;;;;;;15.00;14.50;;;;;21.86;40.97;101316.29;111958;1263;18567;-39
2023/06/06 03:55:22;;;;;;;;;14.00;14.00;;;;;21.84;40.87;101315.64;112058;1263;18670;-40
2023/06/06 03:57:50;;;;;;;;;12.00;11.00;;;;;21.78;41.02;101315.77;112128;1263;19813;-39
2023/06/06 04:00:17;;;;;;;;;14.67;14.00;;;;;21.76;41.00;101312.83;111955;1263;18593;-41
2023/06/06 04:02:46;;;;;;;;;12.00;12.00;;;;;21.74;41.04;101310.95;112097;1263;20971;-39
2023/06/06 04:05:13;;;;;;;;;15.00;14.00;;;;;21.78;41.08;101310.70;112197;1264;20943;-40
2023/06/06 04:07:41;;;;;;;;;14.00;12.00;;;;;21.67;41.03;101309.73;112060;1248;19963;-39
2023/06/06 04:10:08;;;;;;;;;18.00;14.33;;;;;21.70;41.07;101309.60;112253;1263;19069;-40
2023/06/06 04:12:36;;;;;;;;;14.00;12.00;;;;;21.58;40.94;101311.22;112070;1263;19349;-39
2023/06/06 04:15:03;;;;;;;;;11.00;11.00;;;;;21.65;40.79;101311.19;112257;1248;19669;-40
2023/06/06 04:17:31;;;;;;;;;12.00;12.00;;;;;21.69;40.70;101311.91;112075;1263;20063;-40
2023/06/06 04:19:58;;;;;;;;;12.00;12.00;;;;;21.65;40.63;101305.73;112158;1264;20704;-40
2023/06/06 04:22:27;;;;;;;;;15.00;14.00;;;;;21.69;40.36;101308.23;112080;1248;20016;-39
2023/06/06 04:24:54;;;;;;;;;12.00;12.00;;;;;21.76;40.30;101305.30;112192;1248;20105;-39
2023/06/06 04:27:23;;;;;;;;;12.00;12.00;;;;;21.81;40.22;101308.64;111992;1264;20670;-39
2023/06/06 04:29:52;;;;;;;;;14.00;11.50;;;;;21.81;40.22;101308.35;112085;1263;18749;-39
2023/06/06 04:32:19;;;;;;;;;18.00;15.00;;;;;21.78;40.06;101309.77;112143;1263;20011;-41
2023/06/06 04:34:47;;;;;;;;;13.50;12.00;;;;;21.60;40.32;101312.31;111968;1264;19486;-39
2023/06/06 04:37:17;;;;;;;;;12.00;12.00;;;;;21.56;39.96;101316.13;112199;1263;18549;-39
2023/06/06 04:39:44;;;;;;;;;12.00;11.00;;;;;21.50;39.98;101311.55;112136;1263;18700;-39
2023/06/06 04:42:12;;;;;;;;;15.00;14.00;;;;;21.62;39.84;101308.77;111987;1264;20769;-39
2023/06/06 04:44:41;;;;;;;;;13.00;13.00;;;;;21.63;39.87;101310.52;112160;1263;18546;-40
2023/06/06 04:47:09;;;;;;;;;21.67;21.00;;;;;21.73;39.71;101306.08;112179;1248;21486;-40
2023/06/06 04:49:36;;;;;;;;;20.50;18.00;;;;;21.67;39.81;101310.77;112062;1264;19416;-39
2023/06/06 04:52:05;;;;;;;;;20.50;19.00;;;;;21.62;39.74;101309.56;112167;1248;20214;-39
2023/06/06 04:54:33;;;;;;;;;19.00;15.00;;;;;21.52;40.17;101312.77;111950;1264;18650;-39
2023/06/06 04:57:00;;;;;;;;;20.00;18.00;;;;;21.52;39.97;101312.41;112121;1257;19441;-39
2023/06/06 04:59:28;;;;;;;;;18.00;17.00;;;;;21.52;39.88;101314.58;111993;1248;20162;-39
2023/06/06 05:01:56;;;;;;;;;15.50;15.50;;;;;21.59;39.88;101316.19;112111;1263;20042;-39
2023/06/06 05:04:23;;;;;;;;;18.00;17.00;;;;;21.57;40.02;101315.84;112263;1254;20679;-42
2023/06/06 05:06:51;;;;;;;;;17.00;17.00;;;;;21.48;40.36;101318.19;112088;1248;19959;-39
2023/06/06 05:09:18;;;;;;;;;16.00;15.00;;;;;21.54;40.24;101314.35;112310;1264;18712;-40
2023/06/06 05:11:46;;;;;;;;;14.50;13.50;;;;;21.41;40.52;101318.23;112169;1263;19313;-40
2023/06/06 05:14:14;;;;;;;;;17.00;17.00;;;;;21.38;40.80;101319.05;112282;1263;18570;-40
2023/06/06 05:16:46;;;;;;;;;21.00;20.00;;;;;21.35;40.84;101317.19;112036;1251;21367;-39
2023/06/06 05:19:14;;;;;;;;;20.00;18.00;;;;;21.29;40.95;101316.97;112256;1264;19300;-39
2023/06/06 05:21:41;;;;;;;;;15.00;15.00;;;;;21.26;41.01;101313.91;112068;1263;21005;-39
2023/06/06 05:24:08;;;;;;;;;17.00;17.00;;;;;21.35;40.93;101312.06;112214;1263;19144;-40
2023/06/06 05:26:36;;;;;;;;;17.00;17.00;;;;;21.40;41.01;101314.15;112056;1263;19417;-39
2023/06/06 05:29:03;;;;;;;;;19.33;17.00;;;;;21.48;40.87;101311.61;112230;1256;19962;-40
2023/06/06 05:31:33;;;;;;;;;18.00;17.00;;;;;21.48;41.09;101307.63;112056;1263;18641;-39
2023/06/06 05:34:00;;;;;;;;;16.00;14.67;;;;;21.52;40.94;101307.09;112077;1263;19380;-39
2023/06/06 05:36:28;;;;;;;;;17.00;15.00;;;;;21.56;40.81;101309.61;112149;1248;21489;-39
2023/06/06 05:38:55;;;;;;;;;15.00;14.00;;;;;21.55;40.78;101309.52;112101;1263;18937;-39
2023/06/06 05:41:23;;;;;;;;;13.00;13.00;;;;;21.65;40.86;101309.70;112117;1263;20997;-39
2023/06/06 05:43:51;;;;;;;;;17.00;15.00;;;;;21.76;40.61;101307.80;112118;1264;18730;-40
2023/06/06 05:46:18;;;;;;;;;17.00;15.00;;;;;21.78;40.63;101318.64;112219;1263;18641;-40
2023/06/06 05:48:46;;;;;;;;;15.00;14.00;;;;;21.75;40.63;101315.36;112074;1264;20746;-39
2023/06/06 05:51:13;;;;;;;;;16.00;14.50;;;;;21.74;40.76;101317.62;112180;1264;19961;-38
2023/06/06 05:53:41;;;;;;;;;19.00;15.00;;;;;21.77;40.85;101315.16;112073;1264;21601;-39
2023/06/06 05:56:08;;;;;;;;;15.00;14.00;;;;;21.86;40.66;101317.79;112205;1263;19486;-40
2023/06/06 05:58:36;;;;;;;;;14.00;14.00;;;;;21.90;40.59;101322.38;112053;1248;19969;-40
2023/06/06 06:01:04;;;;;;;;;18.00;17.50;;;;;21.88;40.62;101320.65;112262;1263;20058;-39
2023/06/06 06:03:32;;;;;;;;;14.00;14.00;;;;;21.94;40.46;101320.15;112000;1248;20831;-39
2023/06/06 06:06:04;;;;;;;;;15.67;14.67;;;;;21.91;40.61;101320.49;112097;1248;21399;-40
2023/06/06 06:08:34;;;;;;;;;17.00;15.00;;;;;21.91;40.83;101319.20;111965;1248;20062;-39
2023/06/06 06:11:01;;;;;;;;;17.00;17.00;;;;;21.86;40.87;101316.64;112026;1249;21111;-39
2023/06/06 06:13:29;;;;;;;;;18.00;15.00;;;;;21.84;41.01;101321.95;112178;1248;20233;-40
2023/06/06 06:15:56;;;;;;;;;15.67;14.33;;;;;21.82;41.17;101323.34;112025;1256;20032;-40
2023/06/06 06:18:24;;;;;;;;;18.00;17.00;;;;;21.80;41.07;101322.62;112187;1248;20743;-40
2023/06/06 06:20:51;;;;;;;;;19.00;15.00;;;;;21.81;41.04;101323.58;112014;1263;21008;-40
2023/06/06 06:23:19;;;;;;;;;15.67;14.33;;;;;21.84;41.04;101319.81;112196;1263;20029;-40
2023/06/06 06:25:46;;;;;;;;;15.00;15.00;;;;;21.92;41.04;101322.94;112040;1256;19344;-39
2023/06/06 06:28:14;;;;;;;;;17.00;15.00;;;;;21.95;40.91;101320.17;112189;1264;19923;-39
2023/06/06 06:30:41;;;;;;;;;17.00;17.00;;;;;21.98;40.94;101322.40;112034;1263;18970;-38
2023/06/06 06:33:08;;;;;;;;;17.00;17.00;;;;;22.10;40.81;101324.98;112178;1263;21069;-40
2023/06/06 06:35:36;;;;;;;;;14.00;14.00;;;;;22.14;40.86;101325.60;112042;1248;18566;-40
2023/06/06 06:38:03;;;;;;;;;17.00;15.00;;;;;22.20;41.04;101329.30;112213;1263;20135;-40
2023/06/06 06:40:31;;;;;;;;;15.00;15.00;;;;;22.28;40.90;101325.72;112041;1264;19754;-40
2023/06/06 06:42:58;;;;;;;;;18.00;15.00;;;;;22.36;40.76;101326.96;112228;1263;18777;-41
2023/06/06 06:45:26;;;;;;;;;15.00;15.00;;;;;22.40;40.78;101327.05;112024;1263;20386;-40
2023/06/06 06:47:54;;;;;;;;;16.00;15.00;;;;;22.49;40.31;101325.48;112168;1257;20727;-40
2023/06/06 06:50:21;;;;;;;;;16.00;16.00;;;;;22.60;40.33;101324.04;112015;1264;20068;-40
2023/06/06 06:52:49;;;;;;;;;14.00;14.00;;;;;22.66;40.23;101325.52;112166;1256;18677;-40
2023/06/06 06:55:16;;;;;;;;;12.00;12.00;;;;;22.68;40.09;101326.17;112058;1248;19476;-40
2023/06/06 06:57:44;;;;;;;;;15.33;14.67;;;;;22.79;39.95;101326.27;112178;1263;20382;-40
2023/06/06 07:00:14;;;;;;;;;12.00;12.00;;;;;22.90;39.74;101327.52;111951;1264;20088;-40
2023/06/06 07:02:42;;;;;;;;;12.00;12.00;;;;;22.86;39.71;101319.77;112016;1263;19322;-40
2023/06/06 07:05:10;;;;;;;;;13.00;12.00;;;;;22.92;39.52;101322.35;112112;1248;19894;-40
2023/06/06 07:07:37;;;;;;;;;12.00;11.00;;;;;22.99;39.17;101321.16;111975;1248;20310;-41
2023/06/06 07:10:05;;;;;;;;;12.00;11.00;;;;;22.99;39.11;101322.16;112100;1263;20622;-40
2023/06/06 07:12:32;;;;;;;;;11.00;11.00;;;;;22.96;38.88;101320.05;111971;1256;20315;-39
2023/06/06 07:15:00;;;;;;;;;13.33;11.33;;;;;22.98;38.29;101324.08;112129;1263;18639;-39
2023/06/06 07:17:27;;;;;;;;;12.00;12.00;;;;;22.96;38.33;101323.55;111934;1264;20550;-40
2023/06/06 07:19:55;;;;;;;;;11.00;10.00;;;;;23.04;37.98;101320.77;112140;1263;18546;-40
2023/06/06 07:22:22;;;;;;;;;12.00;11.00;;;;;23.07;37.68;101321.88;111944;1264;20415;-40
2023/06/06 07:24:50;;;;;;;;;11.00;10.00;;;;;23.07;37.42;101324.31;112115;1263;21197;-39
2023/06/06 07:27:18;;;;;;;;;11.50;11.00;;;;;23.16;37.17;101324.98;112115;1263;19944;-40
2023/06/06 07:29:45;;;;;;;;;12.00;11.00;;;;;23.19;37.17;101323.98;112110;1263;19970;-39
2023/06/06 07:32:13;;;;;;;;;9.00;9.00;;;;;23.27;37.01;101325.11;112028;1263;19330;-39
2023/06/06 07:34:42;;;;;;;;;12.00;12.00;;;;;23.27;36.55;101323.76;112108;1263;20265;-40
2023/06/06 07:37:09;;;;;;;;;9.00;9.00;;;;;23.19;36.68;101323.06;112189;1263;18701;-40
2023/06/06 07:39:37;;;;;;;;;9.00;9.00;;;;;23.23;36.12;101324.02;111992;1263;19284;-40
2023/06/06 07:42:05;;;;;;;;;11.00;9.00;;;;;23.29;35.59;101320.77;112219;1248;18633;-45
2023/06/06 07:44:33;;;;;;;;;8.00;8.00;;;;;23.26;35.46;101319.33;112076;1248;20012;-39
2023/06/06 07:47:00;;;;;;;;;9.00;9.00;;;;;23.27;35.34;101319.42;112113;1263;19310;-40
2023/06/06 07:49:28;;;;;;;;;9.00;9.00;;;;;23.26;34.95;101319.13;112021;1263;18323;-41
2023/06/06 07:51:55;;;;;;;;;9.00;8.00;;;;;23.25;34.89;101319.85;112129;1263;20402;-40
2023/06/06 07:54:23;;;;;;;;;8.00;8.00;;;;;23.26;34.86;101316.67;111992;1248;20692;-39
2023/06/06 07:56:50;;;;;;;;;9.00;8.00;;;;;23.21;34.52;101313.92;112122;1263;18566;-40
2023/06/06 07:59:18;;;;;;;;;8.00;8.00;;;;;23.22;34.27;101313.02;111937;1264;18727;-42
2023/06/06 08:01:45;;;;;;;;;9.00;9.00;;;;;23.24;33.88;101313.05;112159;1248;19794;-40
2023/06/06 08:04:13;;;;;;;;;7.00;7.00;;;;;23.26;33.47;101310.74;112129;1263;18124;-39
2023/06/06 08:06:42;;;;;;;;;8.00;8.00;;;;;23.20;33.69;101309.11;112103;1248;21191;-40
2023/06/06 08:09:09;;;;;;;;;6.00;6.00;;;;;23.21;33.81;101307.33;112141;1263;19638;-40
2023/06/06 08:11:37;;;;;;;;;8.00;8.00;;;;;23.21;33.74;101302.85;112004;1263;18379;-39
2023/06/06 08:14:04;;;;;;;;;11.00;8.00;;;;;23.17;34.03;101304.68;112197;1263;19994;-40
2023/06/06 08:16:31;;;;;;;;;8.50;8.00;;;;;23.14;34.18;101302.51;112006;1248;20789;-39
2023/06/06 08:18:59;;;;;;;;;8.00;8.00;;;;;23.13;34.09;101299.26;112173;1248;18542;-41
2023/06/06 08:21:27;;;;;;;;;8.33;8.33;;;;;23.14;34.26;101303.25;111984;1263;19005;-40
2023/06/06 08:23:55;;;;;;;;;6.00;6.00;;;;;23.15;34.09;101305.77;112190;1248;21254;-40
2023/06/06 08:26:25;;;;;;;;;8.00;8.00;;;;;23.15;34.12;101297.64;112034;1263;19509;-39
2023/06/06 08:28:52;;;;;;;;;8.00;8.00;;;;;23.17;34.08;101301.80;111971;1251;20391;-40
2023/06/06 08:31:20;;;;;;;;;5.00;5.00;;;;;23.21;34.17;101302.77;112124;1263;20606;-39
2023/06/06 08:33:48;;;;;;;;;8.00;8.00;;;;;23.27;34.23;101301.20;111972;1264;18424;-40
2023/06/06 08:36:15;;;;;;;;;9.00;8.00;;;;;23.36;34.01;101298.27;112158;1263;18611;-39
2023/06/06 08:38:43;;;;;;;;;6.00;6.00;;;;;23.39;33.70;101301.15;111949;1264;21165;-39
2023/06/06 08:41:10;;;;;;;;;8.00;6.00;;;;;23.30;33.44;101296.98;112096;1264;18607;-40
2023/06/06 08:43:38;;;;;;;;;11.00;9.00;;;;;23.30;33.47;101294.41;111980;1248;20034;-40
2023/06/06 08:46:05;;;;;;;;;8.00;6.00;;;;;23.27;33.26;101290.56;112077;1248;19516;-40
2023/06/06 08:48:33;;;;;;;;;8.00;6.00;;;;;23.35;33.17;101295.06;111951;1248;18791;-40
2023/06/06 08:51:00;;;;;;;;;7.00;7.00;;;;;23.43;33.29;101293.23;112100;1251;21191;-40
2023/06/06 08:53:28;;;;;;;;;8.00;8.00;;;;;23.50;33.31;101286.55;111924;1263;19611;-40
2023/06/06 08:55:55;;;;;;;;;9.00;9.00;;;;;23.52;33.20;101286.40;112133;1264;18206;-40
2023/06/06 08:58:22;;;;;;;;;8.00;8.00;;;;;23.46;33.31;101286.30;111937;1264;19767;-39
2023/06/06 09:00:50;;;;;;;;;8.00;8.00;;;;;23.58;32.86;101290.19;112136;1248;20793;-40
2023/06/06 09:03:17;;;;;;;;;6.00;6.00;;;;;23.59;32.56;101285.39;111953;1256;18895;-43
2023/06/06 09:05:46;;;;;;;;;8.00;8.00;;;;;23.54;32.86;101282.24;112141;1248;18757;-41
2023/06/06 09:08:13;;;;;;;;;6.00;6.00;;;;;23.58;32.67;101279.02;112223;1248;20724;-40
2023/06/06 09:10:41;;;;;;;;;8.00;8.00;;;;;23.61;32.63;101278.17;112067;1263;18524;-41
2023/06/06 09:13:08;;;;;;;;;8.00;8.00;;;;;23.71;33.21;101276.05;112066;1256;20231;-41
2023/06/06 09:15:35;;;;;;;;;8.00;8.00;;;;;23.77;33.14;101276.96;112111;1264;20709;-45
2023/06/06 09:18:03;;;;;;;;;6.00;6.00;;;;;23.74;32.62;101269.15;111986;1263;18139;-41
2023/06/06 09:20:30;;;;;;;;;8.00;8.00;;;;;23.73;32.61;101267.92;112119;1248;20084;-41
2023/06/06 09:23:00;;;;;;;;;6.00;6.00;;;;;23.87;32.80;101266.81;111969;1248;19352;-42
2023/06/06 09:25:27;;;;;;;;;8.50;8.50;;;;;23.82;32.53;101270.90;111925;1264;19579;-41
2023/06/06 09:27:55;;;;;;;;;8.00;8.00;;;;;23.79;32.62;101265.66;112126;1248;18806;-41
2023/06/06 09:30:23;;;;;;;;;7.33;7.33;;;;;23.87;32.77;101265.13;111914;1264;22129;-40
2023/06/06 09:32:50;;;;;;;;;9.00;9.00;;;;;23.78;32.98;101266.52;112094;1248;18491;-41
2023/06/06 09:35:17;;;;;;;;;8.00;8.00;;;;;23.76;33.22;101263.98;111928;1263;21295;-41
2023/06/06 09:37:45;;;;;;;;;8.00;8.00;;;;;23.70;33.40;101262.52;112109;1248;20717;-40
2023/06/06 09:40:12;;;;;;;;;10.00;9.00;;;;;23.78;33.33;101263.62;111935;1248;20874;-40
2023/06/06 09:42:41;;;;;;;;;9.00;8.00;;;;;23.68;33.27;101255.92;112115;1263;18841;-40
2023/06/06 09:45:09;;;;;;;;;8.33;8.33;;;;;23.65;33.23;101254.35;112203;1248;20663;-40
2023/06/06 09:47:36;;;;;;;;;8.00;8.00;;;;;23.69;33.36;101255.69;112008;1264;19542;-41
2023/06/06 09:50:04;;;;;;;;;9.00;8.00;;;;;23.74;33.39;101254.20;112227;1264;18794;-41
2023/06/06 09:52:31;;;;;;;;;9.00;8.00;;;;;23.68;33.38;101254.27;112009;1264;21931;-40
2023/06/06 09:54:58;;;;;;;;;9.00;8.00;;;;;23.64;33.42;101254.25;112232;1248;19940;-41
2023/06/06 09:57:26;;;;;;;;;9.00;9.00;;;;;23.70;33.29;101261.26;112088;1263;20277;-41
2023/06/06 09:59:53;;;;;;;;;8.00;6.67;;;;;23.68;32.75;101259.77;112232;1263;20518;-40
2023/06/06 10:02:21;;;;;;;;;8.00;8.00;;;;;23.65;32.75;101248.54;112068;1263;19568;-40
2023/06/06 10:04:48;;;;;;;;;8.00;7.00;;;;;23.67;32.78;101250.39;112220;1263;19963;-41
2023/06/06 10:07:16;;;;;;;;;8.00;8.00;;;;;23.68;32.75;101253.42;112077;1248;20700;-42
2023/06/06 10:09:44;;;;;;;;;8.00;8.00;;;;;23.61;32.65;101239.11;112177;1248;19690;-40
2023/06/06 10:12:12;;;;;;;;;9.00;8.00;;;;;23.54;32.93;101241.08;112013;1263;18499;-39
2023/06/06 10:14:39;;;;;;;;;9.00;9.00;;;;;23.58;33.04;101240.96;112150;1248;19281;-40
2023/06/06 10:17:07;;;;;;;;;8.00;8.00;;;;;23.56;32.79;101240.23;111967;1248;18173;-40
2023/06/06 10:19:35;;;;;;;;;11.00;9.00;;;;;23.56;32.68;101235.89;112106;1248;21923;-40
2023/06/06 10:22:02;;;;;;;;;9.00;9.00;;;;;23.54;32.69;101236.83;111972;1264;20697;-40
2023/06/06 10:24:30;;;;;;;;;8.00;8.00;;;;;23.55;32.81;101235.66;112123;1263;20150;-39
2023/06/06 10:26:57;;;;;;;;;9.00;8.33;;;;;23.58;32.78;101231.59;112044;1248;18588;-39
2023/06/06 10:29:25;;;;;;;;;9.00;9.00;;;;;23.56;32.87;101239.16;112196;1263;19662;-39
2023/06/06 10:31:52;;;;;;;;;9.00;9.00;;;;;23.55;32.85;101234.02;111994;1256;19819;-39
2023/06/06 10:34:19;;;;;;;;;8.00;8.00;;;;;23.53;32.50;101231.63;112164;1263;18812;-40
2023/06/06 10:36:47;;;;;;;;;9.00;8.00;;;;;23.59;32.78;101233.48;111995;1263;20854;-40
2023/06/06 10:39:15;;;;;;;;;9.00;8.00;;;;;23.63;32.71;101233.93;112125;1263;21068;-40
2023/06/06 10:41:42;;;;;;;;;10.00;8.00;;;;;23.61;32.41;101238.98;111944;1263;19948;-39
2023/06/06 10:44:10;;;;;;;;;8.00;8.00;;;;;23.57;32.37;101237.20;112156;1263;20831;-41
2023/06/06 10:46:37;;;;;;;;;8.00;8.00;;;;;23.59;32.29;101237.91;112013;1263;18573;-40
2023/06/06 10:49:06;;;;;;;;;9.00;9.00;;;;;23.56;32.32;101233.73;112149;1263;20033;-42
2023/06/06 10:51:34;;;;;;;;;6.00;6.00;;;;;23.54;32.34;101228.06;112194;1248;21337;-40
2023/06/06 10:54:02;;;;;;;;;9.00;9.00;;;;;23.56;32.30;101223.21;111990;1248;19576;-40
2023/06/06 10:56:29;;;;;;;;;9.00;9.00;;;;;23.60;32.01;101221.02;112129;1257;18572;-40
2023/06/06 10:58:57;;;;;;;;;8.50;8.50;;;;;23.62;32.07;101221.70;112007;1264;20576;-39
2023/06/06 11:01:26;;;;;;;;;9.00;9.00;;;;;23.66;32.07;101226.48;112172;1264;18330;-39
2023/06/06 11:03:53;;;;;;;;;8.00;8.00;;;;;23.63;32.06;101222.11;112188;1257;18579;-39
2023/06/06 11:06:21;;;;;;;;;8.00;8.00;;;;;23.73;32.14;101228.60;112102;1263;19927;-39
2023/06/06 11:08:48;;;;;;;;;8.00;8.00;;;;;23.70;31.90;101226.02;112185;1264;18184;-40